QFA674 YPAD-YMML
Flight info
| Callsign | QFA674 |
|---|---|
| Flight time | 1h 1m |
| Altitude | 35000 |
| Route | AD V255 BENDO Y12 ARBEY H119 ML |
| Aircraft | B738/M-SDE2E3FGHIRWXY/LB1 |
Departure
| Time | 2026-05-07 22:18 |
|---|---|
| Airport | Adelaide International Airport (YPAD) |
Arrival
| Time | 2026-05-07 23:19 |
|---|---|
| Airport | Melbourne Airport (YMML) |
| Time | Latitude | Longitude | Altitude | Speed | Heading |
|---|---|---|---|---|---|
| 2026-05-07 21:34 | -34.93980 | 138.53775 | 26 ft | 0 kts | 320° |
| 2026-05-07 22:09 | -34.93995 | 138.53791 | 32 ft | 4 kts | 319° |
| 2026-05-07 22:10 | -34.94015 | 138.53813 | 31 ft | 4 kts | 312° |
| 2026-05-07 22:10 | -34.94030 | 138.53839 | 30 ft | 4 kts | 285° |
| 2026-05-07 22:10 | -34.94032 | 138.53851 | 29 ft | 1 kts | 270° |
| 2026-05-07 22:13 | -34.94033 | 138.53843 | 28 ft | 2 kts | 258° |
| 2026-05-07 22:13 | -34.94052 | 138.53819 | 27 ft | 7 kts | 215° |
| 2026-05-07 22:14 | -34.94092 | 138.53773 | 29 ft | 8 kts | 226° |
| 2026-05-07 22:14 | -34.94127 | 138.53726 | 25 ft | 7 kts | 230° |
| 2026-05-07 22:14 | -34.94164 | 138.53673 | 28 ft | 10 kts | 229° |
| 2026-05-07 22:14 | -34.94236 | 138.53644 | 25 ft | 13 kts | 159° |
| 2026-05-07 22:15 | -34.94238 | 138.53725 | 23 ft | 11 kts | 62° |
| 2026-05-07 22:15 | -34.94191 | 138.53800 | 23 ft | 13 kts | 50° |
| 2026-05-07 22:15 | -34.94130 | 138.53888 | 26 ft | 14 kts | 50° |
| 2026-05-07 22:15 | -34.94071 | 138.53974 | 26 ft | 13 kts | 50° |
| 2026-05-07 22:16 | -34.94014 | 138.54057 | 27 ft | 13 kts | 50° |
| 2026-05-07 22:16 | -34.93961 | 138.54141 | 26 ft | 12 kts | 65° |
| 2026-05-07 22:16 | -34.93986 | 138.54231 | 27 ft | 12 kts | 140° |
| 2026-05-07 22:16 | -34.94046 | 138.54296 | 27 ft | 11 kts | 141° |
| 2026-05-07 22:17 | -34.94094 | 138.54281 | 27 ft | 8 kts | 230° |
| 2026-05-07 22:17 | -34.94204 | 138.54120 | 32 ft | 56 kts | 230° |
| 2026-05-07 22:17 | -34.94624 | 138.53509 | 22 ft | 128 kts | 230° |
| 2026-05-07 22:17 | -34.95297 | 138.52513 | 277 ft | 164 kts | 230° |
| 2026-05-07 22:18 | -34.95999 | 138.51442 | 1164 ft | 162 kts | 231° |
| 2026-05-07 22:18 | -34.97463 | 138.49172 | 2611 ft | 187 kts | 227° |
| 2026-05-07 22:18 | -34.98388 | 138.47904 | 2891 ft | 211 kts | 227° |
| 2026-05-07 22:19 | -34.99376 | 138.46523 | 3483 ft | 220 kts | 227° |
| 2026-05-07 22:19 | -35.00422 | 138.45033 | 3921 ft | 241 kts | 227° |
| 2026-05-07 22:19 | -35.01521 | 138.43468 | 4784 ft | 244 kts | 224° |
| 2026-05-07 22:19 | -35.02950 | 138.42349 | 5571 ft | 248 kts | 196° |
| 2026-05-07 22:20 | -35.04647 | 138.42182 | 6450 ft | 252 kts | 174° |
| 2026-05-07 22:20 | -35.06317 | 138.42899 | 7253 ft | 261 kts | 150° |
| 2026-05-07 22:20 | -35.07790 | 138.44219 | 8108 ft | 264 kts | 146° |
| 2026-05-07 22:20 | -35.09240 | 138.45622 | 8906 ft | 269 kts | 141° |
| 2026-05-07 22:21 | -35.10339 | 138.47517 | 9679 ft | 282 kts | 115° |
| 2026-05-07 22:21 | -35.10702 | 138.49914 | 10414 ft | 297 kts | 94° |
| 2026-05-07 22:21 | -35.10584 | 138.52539 | 10656 ft | 323 kts | 89° |
| 2026-05-07 22:21 | -35.10374 | 138.55372 | 10842 ft | 347 kts | 88° |
| 2026-05-07 22:22 | -35.10147 | 138.58356 | 11027 ft | 367 kts | 88° |
| 2026-05-07 22:22 | -35.09924 | 138.61513 | 11501 ft | 377 kts | 88° |
| 2026-05-07 22:22 | -35.09710 | 138.64720 | 12205 ft | 380 kts | 88° |
| 2026-05-07 22:22 | -35.09502 | 138.67946 | 12942 ft | 383 kts | 88° |
| 2026-05-07 22:23 | -35.09295 | 138.71204 | 13614 ft | 386 kts | 88° |
| 2026-05-07 22:23 | -35.09087 | 138.74482 | 14300 ft | 389 kts | 88° |
| 2026-05-07 22:23 | -35.08875 | 138.77783 | 14914 ft | 392 kts | 88° |
| 2026-05-07 22:23 | -35.08661 | 138.81113 | 15504 ft | 395 kts | 88° |
| 2026-05-07 22:24 | -35.08444 | 138.84467 | 16097 ft | 398 kts | 88° |
| 2026-05-07 22:24 | -35.08224 | 138.87851 | 16717 ft | 401 kts | 88° |
| 2026-05-07 22:24 | -35.08001 | 138.91256 | 17266 ft | 405 kts | 88° |
| 2026-05-07 22:24 | -35.07775 | 138.94699 | 17825 ft | 409 kts | 88° |
| 2026-05-07 22:25 | -35.07545 | 138.98173 | 18400 ft | 412 kts | 88° |
| 2026-05-07 22:25 | -35.07313 | 139.01675 | 18939 ft | 415 kts | 88° |
| 2026-05-07 22:25 | -35.07105 | 139.05200 | 19433 ft | 417 kts | 91° |
| 2026-05-07 22:25 | -35.07332 | 139.08715 | 19917 ft | 415 kts | 104° |
| 2026-05-07 22:26 | -35.08149 | 139.12092 | 20386 ft | 415 kts | 114° |
| 2026-05-07 22:26 | -35.09406 | 139.15264 | 20828 ft | 416 kts | 121° |
| 2026-05-07 22:26 | -35.10760 | 139.18403 | 21315 ft | 419 kts | 120° |
| 2026-05-07 22:26 | -35.12113 | 139.21570 | 21775 ft | 422 kts | 120° |
| 2026-05-07 22:27 | -35.13463 | 139.24767 | 22226 ft | 425 kts | 120° |
| 2026-05-07 22:27 | -35.14812 | 139.27991 | 22664 ft | 428 kts | 120° |
| 2026-05-07 22:27 | -35.16164 | 139.31240 | 23093 ft | 431 kts | 120° |
| 2026-05-07 22:27 | -35.17522 | 139.34517 | 23519 ft | 433 kts | 120° |
| 2026-05-07 22:28 | -35.18887 | 139.37813 | 23935 ft | 436 kts | 120° |
| 2026-05-07 22:28 | -35.20258 | 139.41130 | 24298 ft | 439 kts | 119° |
| 2026-05-07 22:28 | -35.21621 | 139.44427 | 24639 ft | 441 kts | 119° |
| 2026-05-07 22:28 | -35.23007 | 139.47780 | 24995 ft | 443 kts | 119° |
| 2026-05-07 22:29 | -35.24399 | 139.51153 | 25345 ft | 445 kts | 119° |
| 2026-05-07 22:29 | -35.25752 | 139.54575 | 25652 ft | 448 kts | 117° |
| 2026-05-07 22:29 | -35.27059 | 139.58056 | 25962 ft | 451 kts | 117° |
| 2026-05-07 22:29 | -35.28346 | 139.61563 | 26278 ft | 453 kts | 116° |
| 2026-05-07 22:30 | -35.29635 | 139.65095 | 26618 ft | 455 kts | 116° |
| 2026-05-07 22:30 | -35.30930 | 139.68636 | 26915 ft | 457 kts | 116° |
| 2026-05-07 22:30 | -35.32235 | 139.72190 | 27212 ft | 459 kts | 116° |
| 2026-05-07 22:30 | -35.33550 | 139.75758 | 27505 ft | 461 kts | 116° |
| 2026-05-07 22:31 | -35.34872 | 139.79336 | 27823 ft | 462 kts | 116° |
| 2026-05-07 22:31 | -35.36198 | 139.82924 | 28130 ft | 463 kts | 116° |
| 2026-05-07 22:31 | -35.37527 | 139.86520 | 28414 ft | 464 kts | 116° |
| 2026-05-07 22:31 | -35.38859 | 139.90127 | 28766 ft | 464 kts | 116° |
| 2026-05-07 22:32 | -35.40187 | 139.93727 | 29217 ft | 462 kts | 116° |
| 2026-05-07 22:32 | -35.41502 | 139.97301 | 29699 ft | 459 kts | 116° |
| 2026-05-07 22:32 | -35.42812 | 140.00862 | 30204 ft | 456 kts | 115° |
| 2026-05-07 22:32 | -35.44109 | 140.04392 | 30666 ft | 453 kts | 115° |
| 2026-05-07 22:33 | -35.45404 | 140.07917 | 30953 ft | 453 kts | 115° |
| 2026-05-07 22:33 | -35.46698 | 140.11445 | 31176 ft | 455 kts | 115° |
| 2026-05-07 22:33 | -35.47997 | 140.14990 | 31431 ft | 456 kts | 116° |
| 2026-05-07 22:33 | -35.49293 | 140.18533 | 31742 ft | 455 kts | 116° |
| 2026-05-07 22:34 | -35.50587 | 140.22075 | 32076 ft | 454 kts | 116° |
| 2026-05-07 22:34 | -35.51874 | 140.25602 | 32415 ft | 452 kts | 116° |
| 2026-05-07 22:34 | -35.53159 | 140.29127 | 32698 ft | 452 kts | 116° |
| 2026-05-07 22:34 | -35.54443 | 140.32654 | 32952 ft | 453 kts | 116° |
| 2026-05-07 22:35 | -35.55728 | 140.36185 | 33227 ft | 453 kts | 116° |
| 2026-05-07 22:35 | -35.56994 | 140.39669 | 33531 ft | 452 kts | 116° |
| 2026-05-07 22:35 | -35.58272 | 140.43191 | 33829 ft | 451 kts | 116° |
| 2026-05-07 22:35 | -35.59548 | 140.46709 | 34104 ft | 451 kts | 116° |
| 2026-05-07 22:36 | -35.60823 | 140.50230 | 34390 ft | 450 kts | 116° |
| 2026-05-07 22:36 | -35.62095 | 140.53747 | 34619 ft | 450 kts | 116° |
| 2026-05-07 22:36 | -35.63367 | 140.57266 | 34832 ft | 450 kts | 116° |
| 2026-05-07 22:36 | -35.64635 | 140.60782 | 35048 ft | 450 kts | 116° |
| 2026-05-07 22:37 | -35.65904 | 140.64301 | 35274 ft | 450 kts | 116° |
| 2026-05-07 22:37 | -35.67172 | 140.67820 | 35417 ft | 451 kts | 116° |
| 2026-05-07 22:37 | -35.68446 | 140.71361 | 35405 ft | 453 kts | 116° |
| 2026-05-07 22:38 | -35.70983 | 140.78429 | 35404 ft | 450 kts | 116° |
| 2026-05-07 22:38 | -35.73497 | 140.85448 | 35410 ft | 447 kts | 116° |
| 2026-05-07 22:39 | -35.75995 | 140.92435 | 35411 ft | 445 kts | 116° |
| 2026-05-07 22:39 | -35.78480 | 140.99400 | 35402 ft | 444 kts | 116° |
| 2026-05-07 22:40 | -35.80960 | 141.06369 | 35402 ft | 444 kts | 116° |
| 2026-05-07 22:40 | -35.83021 | 141.12171 | 35409 ft | 445 kts | 116° |
| 2026-05-07 22:41 | -35.85506 | 141.19180 | 35400 ft | 447 kts | 116° |
| 2026-05-07 22:41 | -35.87999 | 141.26230 | 35395 ft | 449 kts | 116° |
| 2026-05-07 22:42 | -35.90498 | 141.33314 | 35395 ft | 451 kts | 116° |
| 2026-05-07 22:42 | -35.93005 | 141.40438 | 35390 ft | 453 kts | 117° |
| 2026-05-07 22:43 | -35.95514 | 141.47582 | 35389 ft | 455 kts | 117° |
| 2026-05-07 22:43 | -35.98028 | 141.54758 | 35386 ft | 456 kts | 116° |
| 2026-05-07 22:44 | -36.00540 | 141.61946 | 35386 ft | 456 kts | 116° |
| 2026-05-07 22:44 | -36.03048 | 141.69138 | 35382 ft | 455 kts | 116° |
| 2026-05-07 22:45 | -36.05547 | 141.76323 | 35377 ft | 455 kts | 116° |
| 2026-05-07 22:45 | -36.08022 | 141.83454 | 35387 ft | 454 kts | 117° |
| 2026-05-07 22:46 | -36.10510 | 141.90638 | 35370 ft | 453 kts | 117° |
| 2026-05-07 22:46 | -36.12985 | 141.97803 | 35371 ft | 452 kts | 117° |
| 2026-05-07 22:47 | -36.15447 | 142.04946 | 35377 ft | 451 kts | 117° |
| 2026-05-07 22:47 | -36.17901 | 142.12082 | 35370 ft | 450 kts | 117° |
| 2026-05-07 22:48 | -36.20347 | 142.19212 | 35361 ft | 450 kts | 117° |
| 2026-05-07 22:48 | -36.22784 | 142.26333 | 35361 ft | 449 kts | 117° |
| 2026-05-07 22:49 | -36.25216 | 142.33458 | 35362 ft | 449 kts | 117° |
| 2026-05-07 22:49 | -36.27626 | 142.40532 | 35355 ft | 449 kts | 117° |
| 2026-05-07 22:50 | -36.30047 | 142.47658 | 35356 ft | 448 kts | 117° |
| 2026-05-07 22:50 | -36.32461 | 142.54780 | 35358 ft | 448 kts | 117° |
| 2026-05-07 22:51 | -36.34874 | 142.61912 | 35348 ft | 449 kts | 117° |
| 2026-05-07 22:51 | -36.37285 | 142.69060 | 35340 ft | 449 kts | 117° |
| 2026-05-07 22:52 | -36.39691 | 142.76210 | 35349 ft | 449 kts | 116° |
| 2026-05-07 22:52 | -36.42099 | 142.83380 | 35337 ft | 450 kts | 117° |
| 2026-05-07 22:53 | -36.44503 | 142.90558 | 35335 ft | 451 kts | 117° |
| 2026-05-07 22:53 | -36.46909 | 142.97764 | 35337 ft | 452 kts | 117° |
| 2026-05-07 22:54 | -36.49311 | 143.04982 | 35335 ft | 452 kts | 117° |
| 2026-05-07 22:54 | -36.50513 | 143.08599 | 35167 ft | 456 kts | 117° |
| 2026-05-07 22:54 | -36.51733 | 143.12268 | 34585 ft | 460 kts | 117° |
| 2026-05-07 22:54 | -36.52947 | 143.15933 | 33887 ft | 459 kts | 117° |
| 2026-05-07 22:55 | -36.54161 | 143.19603 | 33169 ft | 458 kts | 117° |
| 2026-05-07 22:55 | -36.55371 | 143.23266 | 32471 ft | 458 kts | 117° |
| 2026-05-07 22:55 | -36.56581 | 143.26932 | 31744 ft | 458 kts | 117° |
| 2026-05-07 22:55 | -36.57792 | 143.30601 | 31007 ft | 459 kts | 117° |
| 2026-05-07 22:56 | -36.58988 | 143.34230 | 30248 ft | 460 kts | 117° |
| 2026-05-07 22:56 | -36.60217 | 143.37965 | 29320 ft | 461 kts | 117° |
| 2026-05-07 22:56 | -36.61409 | 143.41593 | 28768 ft | 455 kts | 117° |
| 2026-05-07 22:56 | -36.62597 | 143.45220 | 28155 ft | 450 kts | 117° |
| 2026-05-07 22:57 | -36.63774 | 143.48818 | 27600 ft | 445 kts | 117° |
| 2026-05-07 22:57 | -36.64936 | 143.52371 | 27038 ft | 441 kts | 117° |
| 2026-05-07 22:57 | -36.66087 | 143.55892 | 26471 ft | 437 kts | 117° |
| 2026-05-07 22:57 | -36.67228 | 143.59385 | 25918 ft | 433 kts | 117° |
| 2026-05-07 22:58 | -36.68358 | 143.62848 | 25371 ft | 430 kts | 117° |
| 2026-05-07 22:58 | -36.69479 | 143.66288 | 24832 ft | 427 kts | 117° |
| 2026-05-07 22:58 | -36.70594 | 143.69710 | 24263 ft | 425 kts | 117° |
| 2026-05-07 22:58 | -36.71704 | 143.73122 | 23669 ft | 423 kts | 117° |
| 2026-05-07 22:59 | -36.72806 | 143.76515 | 23083 ft | 421 kts | 117° |
| 2026-05-07 22:59 | -36.73898 | 143.79882 | 22507 ft | 417 kts | 117° |
| 2026-05-07 22:59 | -36.74979 | 143.83221 | 21953 ft | 414 kts | 117° |
| 2026-05-07 22:59 | -36.76052 | 143.86538 | 21417 ft | 410 kts | 117° |
| 2026-05-07 23:00 | -36.76871 | 143.89071 | 21004 ft | 408 kts | 117° |
| 2026-05-07 23:00 | -36.77909 | 143.92284 | 20486 ft | 405 kts | 117° |
| 2026-05-07 23:00 | -36.78957 | 143.95534 | 19962 ft | 402 kts | 117° |
| 2026-05-07 23:01 | -36.80000 | 143.98768 | 19433 ft | 400 kts | 117° |
| 2026-05-07 23:01 | -36.81035 | 144.01983 | 18890 ft | 399 kts | 117° |
| 2026-05-07 23:01 | -36.82066 | 144.05187 | 18317 ft | 397 kts | 117° |
| 2026-05-07 23:01 | -36.83090 | 144.08375 | 17752 ft | 394 kts | 117° |
| 2026-05-07 23:02 | -36.84105 | 144.11541 | 17216 ft | 391 kts | 117° |
| 2026-05-07 23:02 | -36.85111 | 144.14681 | 16688 ft | 388 kts | 117° |
| 2026-05-07 23:02 | -36.86108 | 144.17797 | 16183 ft | 385 kts | 117° |
| 2026-05-07 23:02 | -36.87098 | 144.20890 | 15675 ft | 382 kts | 117° |
| 2026-05-07 23:03 | -36.88081 | 144.23968 | 15174 ft | 380 kts | 117° |
| 2026-05-07 23:03 | -36.89059 | 144.27029 | 14661 ft | 379 kts | 117° |
| 2026-05-07 23:03 | -36.90031 | 144.30077 | 14144 ft | 377 kts | 117° |
| 2026-05-07 23:03 | -36.90998 | 144.33114 | 13603 ft | 374 kts | 117° |
| 2026-05-07 23:04 | -36.91956 | 144.36121 | 13080 ft | 371 kts | 118° |
| 2026-05-07 23:04 | -36.93103 | 144.38966 | 12564 ft | 362 kts | 128° |
| 2026-05-07 23:04 | -36.94588 | 144.41399 | 12053 ft | 353 kts | 137° |
| 2026-05-07 23:04 | -36.96211 | 144.43689 | 11559 ft | 350 kts | 137° |
| 2026-05-07 23:05 | -36.97820 | 144.45950 | 11279 ft | 342 kts | 137° |
| 2026-05-07 23:05 | -36.99366 | 144.48134 | 11111 ft | 330 kts | 137° |
| 2026-05-07 23:05 | -37.00858 | 144.50254 | 10995 ft | 319 kts | 137° |
| 2026-05-07 23:05 | -37.02298 | 144.52308 | 10856 ft | 309 kts | 137° |
| 2026-05-07 23:06 | -37.03689 | 144.54296 | 10715 ft | 299 kts | 138° |
| 2026-05-07 23:06 | -37.05041 | 144.56229 | 10454 ft | 294 kts | 138° |
| 2026-05-07 23:06 | -37.06375 | 144.58137 | 10274 ft | 288 kts | 138° |
| 2026-05-07 23:06 | -37.07674 | 144.60000 | 10126 ft | 279 kts | 138° |
| 2026-05-07 23:07 | -37.08932 | 144.61806 | 9942 ft | 272 kts | 138° |
| 2026-05-07 23:07 | -37.10174 | 144.63588 | 9657 ft | 270 kts | 138° |
| 2026-05-07 23:07 | -37.11397 | 144.65343 | 9368 ft | 265 kts | 139° |
| 2026-05-07 23:07 | -37.12598 | 144.67070 | 9100 ft | 260 kts | 139° |
| 2026-05-07 23:08 | -37.13770 | 144.68758 | 8843 ft | 254 kts | 139° |
| 2026-05-07 23:08 | -37.14918 | 144.70412 | 8588 ft | 248 kts | 139° |
| 2026-05-07 23:08 | -37.16023 | 144.72003 | 8368 ft | 242 kts | 140° |
| 2026-05-07 23:08 | -37.17318 | 144.73194 | 8115 ft | 224 kts | 164° |
| 2026-05-07 23:09 | -37.18786 | 144.73759 | 7906 ft | 222 kts | 172° |
| 2026-05-07 23:09 | -37.20317 | 144.74159 | 7685 ft | 228 kts | 174° |
| 2026-05-07 23:09 | -37.21903 | 144.74556 | 7433 ft | 236 kts | 174° |
| 2026-05-07 23:09 | -37.23521 | 144.74966 | 7179 ft | 237 kts | 173° |
| 2026-05-07 23:10 | -37.25136 | 144.75384 | 6914 ft | 236 kts | 173° |
| 2026-05-07 23:10 | -37.26742 | 144.75805 | 6656 ft | 235 kts | 173° |
| 2026-05-07 23:10 | -37.28338 | 144.76228 | 6386 ft | 234 kts | 173° |
| 2026-05-07 23:10 | -37.29920 | 144.76649 | 6191 ft | 230 kts | 173° |
| 2026-05-07 23:11 | -37.31493 | 144.77067 | 6079 ft | 232 kts | 174° |
| 2026-05-07 23:11 | -37.33057 | 144.77428 | 6020 ft | 225 kts | 175° |
| 2026-05-07 23:11 | -37.34562 | 144.77739 | 6026 ft | 212 kts | 176° |
| 2026-05-07 23:11 | -37.35962 | 144.78015 | 6021 ft | 194 kts | 177° |
| 2026-05-07 23:12 | -37.37241 | 144.78247 | 6021 ft | 181 kts | 178° |
| 2026-05-07 23:12 | -37.38502 | 144.78471 | 5797 ft | 184 kts | 178° |
| 2026-05-07 23:12 | -37.39766 | 144.78702 | 5563 ft | 183 kts | 178° |
| 2026-05-07 23:12 | -37.41019 | 144.78935 | 5323 ft | 181 kts | 178° |
| 2026-05-07 23:13 | -37.42248 | 144.79166 | 5074 ft | 177 kts | 179° |
| 2026-05-07 23:13 | -37.43447 | 144.79391 | 4830 ft | 171 kts | 179° |
| 2026-05-07 23:13 | -37.44610 | 144.79610 | 4602 ft | 166 kts | 179° |
| 2026-05-07 23:13 | -37.45739 | 144.79822 | 4391 ft | 163 kts | 180° |
| 2026-05-07 23:14 | -37.46857 | 144.80030 | 4162 ft | 162 kts | 180° |
| 2026-05-07 23:14 | -37.47963 | 144.80237 | 3942 ft | 160 kts | 179° |
| 2026-05-07 23:14 | -37.49056 | 144.80443 | 3717 ft | 157 kts | 179° |
| 2026-05-07 23:14 | -37.50119 | 144.80643 | 3513 ft | 151 kts | 179° |
| 2026-05-07 23:15 | -37.51148 | 144.80835 | 3304 ft | 149 kts | 180° |
| 2026-05-07 23:15 | -37.52150 | 144.81024 | 3113 ft | 144 kts | 180° |
| 2026-05-07 23:15 | -37.53155 | 144.81210 | 2925 ft | 148 kts | 180° |
| 2026-05-07 23:15 | -37.54174 | 144.81401 | 2723 ft | 146 kts | 180° |
| 2026-05-07 23:16 | -37.55173 | 144.81590 | 2523 ft | 144 kts | 180° |
| 2026-05-07 23:16 | -37.56170 | 144.81775 | 2329 ft | 147 kts | 180° |
| 2026-05-07 23:16 | -37.57186 | 144.81964 | 2149 ft | 152 kts | 179° |
| 2026-05-07 23:16 | -37.58239 | 144.82163 | 1916 ft | 147 kts | 181° |
| 2026-05-07 23:17 | -37.59209 | 144.82348 | 1746 ft | 140 kts | 180° |
| 2026-05-07 23:17 | -37.60156 | 144.82524 | 1536 ft | 139 kts | 180° |
| 2026-05-07 23:17 | -37.61137 | 144.82701 | 1397 ft | 143 kts | 179° |
| 2026-05-07 23:17 | -37.62145 | 144.82898 | 1237 ft | 148 kts | 176° |
| 2026-05-07 23:18 | -37.63158 | 144.83106 | 1008 ft | 148 kts | 179° |
| 2026-05-07 23:18 | -37.64192 | 144.83284 | 721 ft | 150 kts | 179° |
| 2026-05-07 23:18 | -37.65203 | 144.83475 | 485 ft | 144 kts | 174° |
| 2026-05-07 23:18 | -37.66134 | 144.83639 | 410 ft | 123 kts | 174° |
| 2026-05-07 23:19 | -37.66819 | 144.83774 | 393 ft | 50 kts | 171° |
| 2026-05-07 23:19 | -37.67054 | 144.83879 | 383 ft | 30 kts | 143° |
| 2026-05-07 23:19 | -37.67173 | 144.84000 | 379 ft | 18 kts | 139° |
| 2026-05-07 23:19 | -37.67222 | 144.84110 | 378 ft | 14 kts | 94° |
| 2026-05-07 23:20 | -37.67184 | 144.84215 | 380 ft | 13 kts | 38° |
| 2026-05-07 23:20 | -37.67099 | 144.84247 | 383 ft | 13 kts | 0° |
| 2026-05-07 23:20 | -37.67012 | 144.84234 | 385 ft | 12 kts | 352° |
| 2026-05-07 23:20 | -37.66927 | 144.84218 | 387 ft | 12 kts | 351° |
| 2026-05-07 23:21 | -37.66844 | 144.84202 | 389 ft | 12 kts | 352° |
| 2026-05-07 23:21 | -37.66762 | 144.84188 | 392 ft | 12 kts | 358° |
| 2026-05-07 23:21 | -37.66700 | 144.84241 | 394 ft | 11 kts | 70° |
| 2026-05-07 23:21 | -37.66684 | 144.84345 | 396 ft | 13 kts | 83° |
| 2026-05-07 23:22 | -37.66670 | 144.84472 | 397 ft | 15 kts | 81° |
| 2026-05-07 23:22 | -37.66655 | 144.84602 | 399 ft | 15 kts | 82° |
| 2026-05-07 23:22 | -37.66638 | 144.84726 | 401 ft | 14 kts | 74° |
| 2026-05-07 23:22 | -37.66576 | 144.84813 | 404 ft | 13 kts | 40° |
| 2026-05-07 23:23 | -37.66540 | 144.84916 | 405 ft | 13 kts | 80° |
| 2026-05-07 23:23 | -37.66537 | 144.85023 | 405 ft | 12 kts | 114° |
| 2026-05-07 23:23 | -37.66614 | 144.85065 | 401 ft | 13 kts | 173° |
| 2026-05-07 23:23 | -37.66708 | 144.85083 | 398 ft | 12 kts | 172° |
| 2026-05-07 23:24 | -37.66782 | 144.85097 | 396 ft | 7 kts | 140° |
| 2026-05-07 23:24 | -37.66780 | 144.85142 | 396 ft | 3 kts | 76° |
| 2026-05-07 23:24 | -37.66778 | 144.85156 | 396 ft | 1 kts | 80° |